Flight Track Log - Related Links

Times and Time Zones

All times are in EDT time to prevent confusion due to time zone crossing. See the LOF3356 flight status page for this flight to view local times or setup timezone preferences in your user account.

Time Position Orientation Groundspeed Altitude Reporting Facility
EDT Latitude Longitude Course Direction KTS MPH feet Rate Location/Type
Tue 06:05:03 PM 38.9500 -77.5000 252° West 167 192 1,600  Level Potomac TRACON
Tue 06:06:04 PM 38.9333 -77.5667 252° West 231 266 3,400 2,380 Climbing Potomac TRACON
Tue 06:07:04 PM 38.9000 -77.6667 247° West 258 297 6,400 2,966 Climbing Potomac TRACON
Tue 06:07:33 PM 38.8925 -77.7147 259° West 258 297 7,800 2,427 Climbing Washington Center
Tue 06:08:33 PM 38.8517 -77.7828 232° Southwest 280 322 10,000 1,700 Climbing Washington Center
Tue 06:09:33 PM 38.8064 -77.8719 237° Southwest 299 344 11,200 1,550 Climbing Washington Center
Tue 06:10:33 PM 38.7978 -77.9864 265° West 314 361 13,100 1,900 Climbing Washington Center
Tue 06:11:33 PM 38.8269 -78.0964 289° West 309 356 15,000 1,850 Climbing Washington Center
Tue 06:12:33 PM 38.8536 -78.2094 287° West 320 368 16,800 1,450 Climbing Washington Center
Tue 06:13:33 PM 38.8531 -78.3319 270° West 334 384 17,900 1,350 Climbing Washington Center
Tue 06:14:33 PM 38.8522 -78.4597 270° West 346 398 19,500 1,500 Climbing Washington Center
Tue 06:15:33 PM 38.8511 -78.5878 269° West 351 404 20,900 1,400 Climbing Washington Center
Tue 06:16:33 PM 38.8497 -78.7236 269° West 369 425 22,300 1,800 Climbing Washington Center
Tue 06:17:33 PM 38.8483 -78.8569 269° West 374 430 24,500 2,150 Climbing Washington Center
Tue 06:18:33 PM 38.8469 -78.9822 269° West 374 430 26,600 2,100 Climbing Washington Center
Tue 06:19:33 PM 38.8436 -79.0992 268° West 353 406 28,700 1,650 Climbing Washington Center
Tue 06:20:33 PM 38.8442 -79.2167 270° West 340 391 29,900 650 Climbing Washington Center
Tue 06:21:33 PM 38.8403 -79.3444 268° West 340 391 30,000 50 Climbing Washington Center
Tue 06:22:33 PM 38.8381 -79.4775 269° West 366 421 30,000  Level Washington Center
Tue 06:23:33 PM 38.8347 -79.6400 269° West 405 466 30,000  Level Washington Center
Tue 06:24:33 PM 38.8303 -79.7756 268° West 405 466 30,000  Level Washington Center
Tue 06:25:33 PM 38.8275 -79.9114 269° West 398 458 30,000  Level Washington Center
Tue 06:26:33 PM 38.8231 -80.0336 267° West 387 445 30,000 261 Level Washington Center
Tue 06:27:28 PM 38.8189 -80.1514 267° West 383 441 30,500 718 Climbing Indianapolis Center
Tue 06:28:30 PM 38.8147 -80.2822 268° West 372 428 31,400 726 Climbing Indianapolis Center
Tue 06:29:32 PM 38.8125 -80.4119 269° West 365 420 32,000 290 Climbing Indianapolis Center
Tue 06:30:34 PM 38.8081 -80.5725 268° West 376 433 32,000  Level Indianapolis Center
Tue 06:31:36 PM 38.8028 -80.7103 267° West 385 443 32,000 -48 Level Indianapolis Center
Tue 06:32:38 PM 38.7986 -80.8506 268° West 393 452 31,900 -484 Descending Indianapolis Center
Tue 06:33:40 PM 38.7939 -80.9842 267° West 378 435 31,000 -919 Descending Indianapolis Center
Tue 06:34:42 PM 38.7906 -81.1183 268° West 376 433 30,000 -1,016 Descending Indianapolis Center
Tue 06:35:44 PM 38.7856 -81.2592 267° West 395 455 28,900 -1,016 Descending Indianapolis Center
Tue 06:36:46 PM 38.7792 -81.4306 267° West 405 466 27,900 -435 Descending Indianapolis Center
Tue 06:37:48 PM 38.7739 -81.5700 267° West 395 455 28,000 48 Climbing Indianapolis Center
Tue 06:38:50 PM 38.7686 -81.6997 267° West 388 447 28,000  Level Indianapolis Center
Tue 06:39:52 PM 38.7631 -81.8353 267° West 385 443 28,000 -48 Level Indianapolis Center
Tue 06:40:54 PM 38.7561 -82.0006 267° West 388 447 27,900 -774 Descending Indianapolis Center
Tue 06:41:56 PM 38.7267 -82.1328 254° West 387 445 26,400 -1,452 Descending Indianapolis Center
Tue 06:42:58 PM 38.6925 -82.2631 251° West 388 447 24,900 -1,161 Descending Indianapolis Center
Tue 06:44:00 PM 38.6583 -82.3922 251° West 385 443 24,000 -435 Descending Indianapolis Center
Tue 06:45:02 PM 38.6222 -82.5242 251° West 380 437 24,000 -435 Level Indianapolis Center
Tue 06:46:04 PM 38.5883 -82.6514 251° West 379 436 23,100 -968 Descending Indianapolis Center
Tue 06:47:06 PM 38.5469 -82.8039 251° West 387 445 22,000 -532 Descending Indianapolis Center
Tue 06:48:08 PM 38.5133 -82.9275 251° West 374 430 22,000  Level Indianapolis Center
Tue 06:49:10 PM 38.4792 -83.0517 251° West 372 428 22,000 -629 Level Indianapolis Center
Tue 06:50:12 PM 38.4900 -83.1700 277° West 345 397 20,700 -1,306 Descending Indianapolis Center
Tue 06:51:14 PM 38.5097 -83.2903 282° West 346 398 19,300 -1,403 Descending Indianapolis Center
Tue 06:52:16 PM 38.5281 -83.4058 281° West 336 387 17,800 -1,742 Descending Indianapolis Center
Tue 06:53:18 PM 38.5500 -83.5322 283° West 317 365 15,700 -1,839 Descending Indianapolis Center
Tue 06:54:20 PM 38.5678 -83.6328 283° West 298 343 14,000 -1,645 Descending Indianapolis Center
Tue 06:55:22 PM 38.5839 -83.7344 281° West 293 337 12,300 -1,597 Descending Indianapolis Center
Tue 06:56:24 PM 38.5978 -83.8219 282° West 261 300 10,700 -1,065 Descending Indianapolis Center
Tue 06:57:26 PM 38.6119 -83.9083 282° West 251 289 10,100 -387 Descending Indianapolis Center
Tue 06:58:28 PM 38.6572 -84.0056 301° West 281 323 9,900 -97 Descending Indianapolis Center
Tue 06:59:30 PM 38.7061 -84.0981 304° West 304 350 9,900 -48 Level Indianapolis Center
Tue 07:00:32 PM 38.7544 -84.1939 303° West 315 362 9,800 -390 Descending Indianapolis Center
Tue 07:01:33 PM 38.7939 -84.2700 304° West 256 295 9,100 -439 Descending Indianapolis Center
Tue 07:02:35 PM 38.8311 -84.3422 304° West 245 282 8,900 -97 Descending Indianapolis Center
Tue 07:03:37 PM 38.8717 -84.4206 304° West 260 299 8,900 54 Level Indianapolis Center
Tue 07:04:27 PM 38.9000 -84.4833 300° West 250 288 9,000 55 Climbing Cincinnati TRACON
Tue 07:05:27 PM 38.9667 -84.5333 330° Northwest 272 313 9,000 -500 Level Cincinnati TRACON
Tue 07:06:27 PM 39.0333 -84.5333 360° North 287 330 8,000 -1,200 Descending Cincinnati TRACON
Tue 07:07:27 PM 39.1167 -84.5333 360° North 270 311 6,600 -1,462 Descending Cincinnati TRACON
Tue 07:07:45 PM 39.1372 -84.5397 346° North 274 315 6,100 -1,425 Descending Indianapolis Center
Tue 07:08:47 PM 39.2094 -84.5461 356° North 264 304 4,700 -1,113 Descending Indianapolis Center
Tue 07:09:49 PM 39.2086 -84.6103 269° West 198 228 3,800 -780 Descending Indianapolis Center
Tue 07:10:27 PM 39.1833 -84.6500 231° Southwest 169 194 3,400 -673 Descending Cincinnati TRACON
Tue 07:11:27 PM 39.1500 -84.6667 201° Southwest 167 192 2,700 -800 Descending Cincinnati TRACON
Tue 07:12:27 PM 39.1167 -84.6667 180° South 127 146 1,800 -762 Descending Cincinnati TRACON
Tue 07:13:33 PM 39.0667 -84.6667 180° South 118 136 1,100 -636 Descending Cincinnati TRACON
Tue 07:15:00 PM 39.0488 -84.6678 215° Southwest  Level Estimated

Login

Don't have an account? Register now (free) for customized features, flight alerts, and more!